Quebec, Canada

3:23 PM EDT on September 01, 2014 (GMT -0400)
Quebec-Lesage International | Change Station
CLOSE
Current Station
Airport
Location: Quebec,
Elevation: 243 ft
Nearby Weather Stations

Elev 243 ft 46.79 °N, 71.39 °W | Updated 23 minutes ago

Mostly Cloudy
Mostly Cloudy
66 °F
Feels Like 66 °F
N
13
Wind Variable Wind from ENE

Today
High -- | Low -- °F
--% Chance of Precip.
Yesterday
High -- | Low -- °F
Precip. -- in
6:05 AM 7:24 PM
Waxing Crescent, 43% visible
Pressure 29.94 in
Visibility 20.0 miles
Clouds Few 1000 ft
Scattered Clouds 1800 ft
Mostly Cloudy 6000 ft
Dew Point 61 °F
Humidity 83%
Rainfall 0.00 in
Snow Depth Not available.
UV 3 out of 12
Pollen Not available.
Air Quality Not available.
Flu Activity Not available.
METAR CYQB 011900Z 06011KT 20SM FEW010 SCT018 BKN060 19/16 A2994 RMK SF1SC3SC4 SF TR SLP139 DENSITY ALT 700FT

More Conditions Fewer Conditions

Pressure 29.94 in
Visibility 20.0 miles
Clouds Few 1000 ft
Scattered Clouds 1800 ft
Mostly Cloudy 6000 ft
Dew Point 61 °F
Humidity 83%
Rainfall 0.00 in
Snow Depth Not available.
UV 3 out of 12
Pollen Not available.
Air Quality Not available.
Flu Activity Not available.
METAR CYQB 011900Z 06011KT 20SM FEW010 SCT018 BKN060 19/16 A2994 RMK SF1SC3SC4 SF TR SLP139 DENSITY ALT 700FT

More Conditions Fewer Conditions

10-Day Weather Forecast

Almanac

Astronomy

Sep. 01, 2014 Rise Set
Actual Time 6:05 AM EDT 7:24 PM EDT
Civil Twilight 5:33 AM EDT 7:56 PM EDT
Nautical Twilight 4:55 AM EDT 8:34 PM EDT
Astronomical Twilight 4:15 AM EDT 9:14 PM EDT
Moon 1:13 PM EDT 10:58 PM EDT
Length of Visible Light 14h 22m
Length of Day
13h 19m
Tomorrow will be 3m 13s shorter.
Waxing Crescent, 43% of the Moon is Illuminated
Today
Waxing Crescent
Sep 2
First Quarter
Sep 8
Full
Sep 15
Last Quarter
Sep 24
New

Today's Extremes

Country Highs Country Lows

Community

WunderPhotos

Upload Photos

1,749,378 photos uploaded!

WunderBlogs® & News

Nearby

Snow Depth

Not available.

Earthquake Activity

City Distance Mag. Time & Date
No recent earthquake activity has been reported nearby.
Minimum magnitude displayed is 2.5.

Coastal Water Temperatures

Place Temperature
No Stations Reporting

Nearby Weather Stations